sensor_id;sensor_type;location;lat;lon;timestamp;P1;durP1;ratioP1;P2;durP2;ratioP2
6145;SDS011;3104;50.348;7.620;2023-04-28T00:01:41;5.33;;;3.83;;
6145;SDS011;3104;50.348;7.620;2023-04-28T00:04:06;3.90;;;3.50;;
6145;SDS011;3104;50.348;7.620;2023-04-28T00:06:32;4.93;;;3.97;;
6145;SDS011;3104;50.348;7.620;2023-04-28T00:08:58;7.93;;;4.33;;
6145;SDS011;3104;50.348;7.620;2023-04-28T00:11:24;3.83;;;3.53;;
6145;SDS011;3104;50.348;7.620;2023-04-28T00:13:49;6.30;;;4.27;;
6145;SDS011;3104;50.348;7.620;2023-04-28T00:16:15;11.37;;;5.10;;
6145;SDS011;3104;50.348;7.620;2023-04-28T00:18:41;6.13;;;4.47;;
6145;SDS011;3104;50.348;7.620;2023-04-28T00:21:06;4.20;;;3.87;;
6145;SDS011;3104;50.348;7.620;2023-04-28T00:23:32;5.50;;;4.60;;
6145;SDS011;3104;50.348;7.620;2023-04-28T00:25:58;5.17;;;3.90;;
6145;SDS011;3104;50.348;7.620;2023-04-28T00:28:23;7.23;;;4.33;;
6145;SDS011;3104;50.348;7.620;2023-04-28T00:30:49;4.80;;;4.30;;
6145;SDS011;3104;50.348;7.620;2023-04-28T00:33:14;6.17;;;4.70;;
6145;SDS011;3104;50.348;7.620;2023-04-28T00:35:40;5.47;;;4.90;;
6145;SDS011;3104;50.348;7.620;2023-04-28T00:38:06;7.40;;;4.50;;
6145;SDS011;3104;50.348;7.620;2023-04-28T00:40:35;6.90;;;4.40;;
6145;SDS011;3104;50.348;7.620;2023-04-28T00:43:02;7.67;;;4.87;;
6145;SDS011;3104;50.348;7.620;2023-04-28T00:45:28;8.40;;;4.93;;
6145;SDS011;3104;50.348;7.620;2023-04-28T00:47:54;6.43;;;4.40;;
6145;SDS011;3104;50.348;7.620;2023-04-28T00:50:21;5.20;;;4.43;;
6145;SDS011;3104;50.348;7.620;2023-04-28T00:52:48;5.80;;;4.60;;
6145;SDS011;3104;50.348;7.620;2023-04-28T00:55:15;5.70;;;4.87;;
6145;SDS011;3104;50.348;7.620;2023-04-28T00:57:41;7.47;;;4.60;;
6145;SDS011;3104;50.348;7.620;2023-04-28T01:00:07;8.10;;;4.90;;
6145;SDS011;3104;50.348;7.620;2023-04-28T01:02:36;5.30;;;4.80;;
6145;SDS011;3104;50.348;7.620;2023-04-28T01:05:02;4.47;;;4.07;;
6145;SDS011;3104;50.348;7.620;2023-04-28T01:07:29;8.20;;;5.10;;
6145;SDS011;3104;50.348;7.620;2023-04-28T01:09:54;4.60;;;4.20;;
6145;SDS011;3104;50.348;7.620;2023-04-28T01:12:21;5.37;;;4.57;;
6145;SDS011;3104;50.348;7.620;2023-04-28T01:14:47;6.37;;;4.33;;
6145;SDS011;3104;50.348;7.620;2023-04-28T01:17:13;5.70;;;4.30;;
6145;SDS011;3104;50.348;7.620;2023-04-28T01:19:39;7.17;;;5.67;;
6145;SDS011;3104;50.348;7.620;2023-04-28T01:22:04;5.63;;;5.13;;
6145;SDS011;3104;50.348;7.620;2023-04-28T01:24:30;5.40;;;4.23;;
6145;SDS011;3104;50.348;7.620;2023-04-28T01:26:56;4.57;;;4.17;;
6145;SDS011;3104;50.348;7.620;2023-04-28T01:29:21;8.03;;;4.93;;
6145;SDS011;3104;50.348;7.620;2023-04-28T01:31:47;3.93;;;3.73;;
6145;SDS011;3104;50.348;7.620;2023-04-28T01:34:13;5.13;;;4.60;;
6145;SDS011;3104;50.348;7.620;2023-04-28T01:36:38;5.37;;;4.87;;
6145;SDS011;3104;50.348;7.620;2023-04-28T01:39:04;4.90;;;4.40;;
6145;SDS011;3104;50.348;7.620;2023-04-28T01:41:30;8.17;;;4.40;;
6145;SDS011;3104;50.348;7.620;2023-04-28T01:43:58;5.50;;;4.00;;
6145;SDS011;3104;50.348;7.620;2023-04-28T01:46:24;4.67;;;4.23;;
6145;SDS011;3104;50.348;7.620;2023-04-28T01:48:49;4.43;;;3.90;;
6145;SDS011;3104;50.348;7.620;2023-04-28T01:51:15;4.70;;;4.20;;
6145;SDS011;3104;50.348;7.620;2023-04-28T01:53:41;7.50;;;4.50;;
6145;SDS011;3104;50.348;7.620;2023-04-28T01:56:06;4.37;;;4.00;;
6145;SDS011;3104;50.348;7.620;2023-04-28T01:58:32;4.53;;;4.07;;
6145;SDS011;3104;50.348;7.620;2023-04-28T02:00:57;4.43;;;4.03;;
6145;SDS011;3104;50.348;7.620;2023-04-28T02:03:23;4.47;;;4.07;;
6145;SDS011;3104;50.348;7.620;2023-04-28T02:05:48;4.33;;;3.93;;
6145;SDS011;3104;50.348;7.620;2023-04-28T02:08:14;6.40;;;4.30;;
6145;SDS011;3104;50.348;7.620;2023-04-28T02:10:40;4.53;;;4.13;;
6145;SDS011;3104;50.348;7.620;2023-04-28T02:13:05;5.03;;;4.00;;
6145;SDS011;3104;50.348;7.620;2023-04-28T02:15:31;4.83;;;4.43;;
6145;SDS011;3104;50.348;7.620;2023-04-28T02:17:56;4.43;;;4.03;;
6145;SDS011;3104;50.348;7.620;2023-04-28T02:20:22;5.83;;;4.57;;
6145;SDS011;3104;50.348;7.620;2023-04-28T02:22:48;7.27;;;4.73;;
6145;SDS011;3104;50.348;7.620;2023-04-28T02:25:14;5.70;;;4.40;;
6145;SDS011;3104;50.348;7.620;2023-04-28T02:27:39;5.97;;;5.00;;
6145;SDS011;3104;50.348;7.620;2023-04-28T02:30:05;5.50;;;4.77;;
6145;SDS011;3104;50.348;7.620;2023-04-28T02:32:31;8.40;;;4.97;;
6145;SDS011;3104;50.348;7.620;2023-04-28T02:34:57;7.63;;;4.40;;
6145;SDS011;3104;50.348;7.620;2023-04-28T02:37:23;5.57;;;5.07;;
6145;SDS011;3104;50.348;7.620;2023-04-28T02:39:48;5.30;;;4.90;;
6145;SDS011;3104;50.348;7.620;2023-04-28T02:42:14;4.80;;;4.40;;
6145;SDS011;3104;50.348;7.620;2023-04-28T02:44:39;5.10;;;4.60;;
6145;SDS011;3104;50.348;7.620;2023-04-28T02:47:05;5.73;;;4.40;;
6145;SDS011;3104;50.348;7.620;2023-04-28T02:49:31;6.43;;;4.83;;
6145;SDS011;3104;50.348;7.620;2023-04-28T02:51:56;5.83;;;4.63;;
6145;SDS011;3104;50.348;7.620;2023-04-28T02:54:22;4.97;;;4.50;;
6145;SDS011;3104;50.348;7.620;2023-04-28T02:56:54;6.33;;;5.20;;
6145;SDS011;3104;50.348;7.620;2023-04-28T02:59:20;10.03;;;5.30;;
6145;SDS011;3104;50.348;7.620;2023-04-28T03:01:46;8.77;;;4.80;;
6145;SDS011;3104;50.348;7.620;2023-04-28T03:04:12;5.50;;;5.00;;
6145;SDS011;3104;50.348;7.620;2023-04-28T03:06:39;6.73;;;5.50;;
6145;SDS011;3104;50.348;7.620;2023-04-28T03:09:06;6.50;;;5.27;;
6145;SDS011;3104;50.348;7.620;2023-04-28T03:11:32;8.23;;;5.20;;
6145;SDS011;3104;50.348;7.620;2023-04-28T03:13:57;6.93;;;5.40;;
6145;SDS011;3104;50.348;7.620;2023-04-28T03:16:23;8.90;;;8.00;;
6145;SDS011;3104;50.348;7.620;2023-04-28T03:18:48;6.60;;;6.00;;
6145;SDS011;3104;50.348;7.620;2023-04-28T03:21:14;6.07;;;5.53;;
6145;SDS011;3104;50.348;7.620;2023-04-28T03:23:40;6.33;;;5.83;;
6145;SDS011;3104;50.348;7.620;2023-04-28T03:26:05;9.33;;;5.37;;
6145;SDS011;3104;50.348;7.620;2023-04-28T03:28:31;7.20;;;5.57;;
6145;SDS011;3104;50.348;7.620;2023-04-28T03:30:57;6.73;;;6.03;;
6145;SDS011;3104;50.348;7.620;2023-04-28T03:33:22;7.30;;;5.23;;
6145;SDS011;3104;50.348;7.620;2023-04-28T03:35:48;6.00;;;4.87;;
6145;SDS011;3104;50.348;7.620;2023-04-28T03:38:13;7.00;;;6.17;;
6145;SDS011;3104;50.348;7.620;2023-04-28T03:40:39;8.47;;;7.60;;
6145;SDS011;3104;50.348;7.620;2023-04-28T03:43:05;9.10;;;6.30;;
6145;SDS011;3104;50.348;7.620;2023-04-28T03:45:31;6.20;;;5.20;;
6145;SDS011;3104;50.348;7.620;2023-04-28T03:47:57;6.03;;;5.57;;
6145;SDS011;3104;50.348;7.620;2023-04-28T03:50:22;8.73;;;5.23;;
6145;SDS011;3104;50.348;7.620;2023-04-28T03:52:48;5.53;;;4.93;;
6145;SDS011;3104;50.348;7.620;2023-04-28T03:55:13;6.90;;;6.30;;
6145;SDS011;3104;50.348;7.620;2023-04-28T03:57:39;6.23;;;5.43;;
6145;SDS011;3104;50.348;7.620;2023-04-28T04:00:05;8.60;;;6.43;;
6145;SDS011;3104;50.348;7.620;2023-04-28T04:02:31;8.23;;;6.00;;
6145;SDS011;3104;50.348;7.620;2023-04-28T04:04:57;6.23;;;5.73;;
6145;SDS011;3104;50.348;7.620;2023-04-28T04:07:22;7.53;;;5.90;;
6145;SDS011;3104;50.348;7.620;2023-04-28T04:09:48;6.37;;;5.87;;
6145;SDS011;3104;50.348;7.620;2023-04-28T04:12:14;6.43;;;5.80;;
6145;SDS011;3104;50.348;7.620;2023-04-28T04:14:40;9.93;;;6.20;;
6145;SDS011;3104;50.348;7.620;2023-04-28T04:17:05;7.10;;;6.47;;
6145;SDS011;3104;50.348;7.620;2023-04-28T04:19:31;7.90;;;5.90;;
6145;SDS011;3104;50.348;7.620;2023-04-28T04:21:57;8.10;;;6.60;;
6145;SDS011;3104;50.348;7.620;2023-04-28T04:24:22;6.77;;;6.00;;
6145;SDS011;3104;50.348;7.620;2023-04-28T04:26:48;6.60;;;6.00;;
6145;SDS011;3104;50.348;7.620;2023-04-28T04:29:13;7.63;;;6.43;;
6145;SDS011;3104;50.348;7.620;2023-04-28T04:31:39;6.80;;;6.20;;
6145;SDS011;3104;50.348;7.620;2023-04-28T04:34:05;7.30;;;6.70;;
6145;SDS011;3104;50.348;7.620;2023-04-28T04:36:31;7.03;;;5.50;;
6145;SDS011;3104;50.348;7.620;2023-04-28T04:38:57;6.97;;;6.30;;
6145;SDS011;3104;50.348;7.620;2023-04-28T04:41:24;6.83;;;5.53;;
6145;SDS011;3104;50.348;7.620;2023-04-28T04:43:50;7.47;;;6.23;;
6145;SDS011;3104;50.348;7.620;2023-04-28T04:46:15;6.87;;;6.30;;
6145;SDS011;3104;50.348;7.620;2023-04-28T04:48:41;7.53;;;6.73;;
6145;SDS011;3104;50.348;7.620;2023-04-28T04:51:07;13.93;;;9.00;;
6145;SDS011;3104;50.348;7.620;2023-04-28T04:53:33;9.07;;;8.03;;
6145;SDS011;3104;50.348;7.620;2023-04-28T04:55:58;8.03;;;6.27;;
6145;SDS011;3104;50.348;7.620;2023-04-28T04:58:24;7.00;;;6.30;;
6145;SDS011;3104;50.348;7.620;2023-04-28T05:00:50;6.93;;;6.37;;
6145;SDS011;3104;50.348;7.620;2023-04-28T05:03:16;9.00;;;7.37;;
6145;SDS011;3104;50.348;7.620;2023-04-28T05:05:42;8.27;;;7.47;;
6145;SDS011;3104;50.348;7.620;2023-04-28T05:08:09;10.00;;;7.67;;
6145;SDS011;3104;50.348;7.620;2023-04-28T05:10:35;7.60;;;6.57;;
6145;SDS011;3104;50.348;7.620;2023-04-28T05:13:01;7.13;;;6.53;;
6145;SDS011;3104;50.348;7.620;2023-04-28T05:15:26;7.70;;;7.00;;
6145;SDS011;3104;50.348;7.620;2023-04-28T05:17:52;7.40;;;6.70;;
6145;SDS011;3104;50.348;7.620;2023-04-28T05:20:18;7.13;;;6.50;;
6145;SDS011;3104;50.348;7.620;2023-04-28T05:22:43;7.93;;;7.23;;
6145;SDS011;3104;50.348;7.620;2023-04-28T05:25:09;13.53;;;10.47;;
6145;SDS011;3104;50.348;7.620;2023-04-28T05:27:34;10.60;;;9.50;;
6145;SDS011;3104;50.348;7.620;2023-04-28T05:30:03;11.00;;;7.80;;
6145;SDS011;3104;50.348;7.620;2023-04-28T05:32:30;11.87;;;8.03;;
6145;SDS011;3104;50.348;7.620;2023-04-28T05:34:55;7.93;;;7.13;;
6145;SDS011;3104;50.348;7.620;2023-04-28T05:37:21;11.53;;;8.93;;
6145;SDS011;3104;50.348;7.620;2023-04-28T05:39:46;12.50;;;8.80;;
6145;SDS011;3104;50.348;7.620;2023-04-28T05:42:12;9.60;;;8.70;;
6145;SDS011;3104;50.348;7.620;2023-04-28T05:44:37;9.53;;;8.63;;
6145;SDS011;3104;50.348;7.620;2023-04-28T05:47:03;11.23;;;9.00;;
6145;SDS011;3104;50.348;7.620;2023-04-28T05:49:29;8.37;;;7.57;;
6145;SDS011;3104;50.348;7.620;2023-04-28T05:51:54;9.47;;;8.57;;
6145;SDS011;3104;50.348;7.620;2023-04-28T05:54:20;9.33;;;8.43;;
6145;SDS011;3104;50.348;7.620;2023-04-28T05:56:45;9.70;;;8.77;;
6145;SDS011;3104;50.348;7.620;2023-04-28T05:59:11;10.13;;;9.27;;
6145;SDS011;3104;50.348;7.620;2023-04-28T06:01:36;10.27;;;9.37;;
6145;SDS011;3104;50.348;7.620;2023-04-28T06:04:02;9.57;;;8.57;;
6145;SDS011;3104;50.348;7.620;2023-04-28T06:06:28;9.77;;;8.50;;
6145;SDS011;3104;50.348;7.620;2023-04-28T06:08:54;10.50;;;9.40;;
6145;SDS011;3104;50.348;7.620;2023-04-28T06:11:19;9.73;;;8.73;;
6145;SDS011;3104;50.348;7.620;2023-04-28T06:13:46;10.70;;;9.23;;
6145;SDS011;3104;50.348;7.620;2023-04-28T06:16:13;9.57;;;8.67;;
6145;SDS011;3104;50.348;7.620;2023-04-28T06:18:39;9.50;;;8.27;;
6145;SDS011;3104;50.348;7.620;2023-04-28T06:21:05;8.90;;;8.10;;
6145;SDS011;3104;50.348;7.620;2023-04-28T06:23:30;10.23;;;8.20;;
6145;SDS011;3104;50.348;7.620;2023-04-28T06:25:56;9.33;;;8.43;;
6145;SDS011;3104;50.348;7.620;2023-04-28T06:28:21;11.17;;;7.60;;
6145;SDS011;3104;50.348;7.620;2023-04-28T06:30:47;10.73;;;8.60;;
6145;SDS011;3104;50.348;7.620;2023-04-28T06:33:13;9.10;;;8.00;;
6145;SDS011;3104;50.348;7.620;2023-04-28T06:35:38;8.40;;;7.60;;
6145;SDS011;3104;50.348;7.620;2023-04-28T06:38:05;9.97;;;8.37;;
6145;SDS011;3104;50.348;7.620;2023-04-28T06:40:31;9.73;;;8.83;;
6145;SDS011;3104;50.348;7.620;2023-04-28T06:42:56;9.23;;;7.37;;
6145;SDS011;3104;50.348;7.620;2023-04-28T06:45:22;15.07;;;8.83;;
6145;SDS011;3104;50.348;7.620;2023-04-28T06:47:48;12.03;;;9.00;;
6145;SDS011;3104;50.348;7.620;2023-04-28T06:50:13;10.47;;;7.90;;
6145;SDS011;3104;50.348;7.620;2023-04-28T06:52:39;10.33;;;8.63;;
6145;SDS011;3104;50.348;7.620;2023-04-28T06:55:05;11.17;;;10.07;;
6145;SDS011;3104;50.348;7.620;2023-04-28T06:57:33;10.10;;;8.87;;
6145;SDS011;3104;50.348;7.620;2023-04-28T06:59:59;10.00;;;9.00;;
6145;SDS011;3104;50.348;7.620;2023-04-28T07:02:24;10.30;;;9.20;;
6145;SDS011;3104;50.348;7.620;2023-04-28T07:04:51;9.47;;;8.43;;
6145;SDS011;3104;50.348;7.620;2023-04-28T07:07:16;11.70;;;9.10;;
6145;SDS011;3104;50.348;7.620;2023-04-28T07:09:42;12.90;;;10.30;;
6145;SDS011;3104;50.348;7.620;2023-04-28T07:12:08;11.23;;;9.53;;
6145;SDS011;3104;50.348;7.620;2023-04-28T07:14:34;9.20;;;8.30;;
6145;SDS011;3104;50.348;7.620;2023-04-28T07:16:59;10.80;;;9.70;;
6145;SDS011;3104;50.348;7.620;2023-04-28T07:19:25;10.80;;;9.70;;
6145;SDS011;3104;50.348;7.620;2023-04-28T07:21:50;9.23;;;8.27;;
6145;SDS011;3104;50.348;7.620;2023-04-28T07:24:16;8.53;;;7.73;;
6145;SDS011;3104;50.348;7.620;2023-04-28T07:26:42;8.90;;;8.10;;
6145;SDS011;3104;50.348;7.620;2023-04-28T07:29:07;10.67;;;9.33;;
6145;SDS011;3104;50.348;7.620;2023-04-28T07:31:34;9.43;;;8.53;;
6145;SDS011;3104;50.348;7.620;2023-04-28T07:34:00;12.67;;;11.37;;
6145;SDS011;3104;50.348;7.620;2023-04-28T07:36:25;12.70;;;11.50;;
6145;SDS011;3104;50.348;7.620;2023-04-28T07:38:51;9.33;;;8.53;;
6145;SDS011;3104;50.348;7.620;2023-04-28T07:41:17;9.53;;;8.73;;
6145;SDS011;3104;50.348;7.620;2023-04-28T07:43:42;9.50;;;8.67;;
6145;SDS011;3104;50.348;7.620;2023-04-28T07:46:08;9.57;;;8.77;;
6145;SDS011;3104;50.348;7.620;2023-04-28T07:48:34;9.23;;;8.40;;
6145;SDS011;3104;50.348;7.620;2023-04-28T07:51:00;10.30;;;9.10;;
6145;SDS011;3104;50.348;7.620;2023-04-28T07:53:26;11.73;;;9.80;;
6145;SDS011;3104;50.348;7.620;2023-04-28T07:55:52;12.00;;;9.70;;
6145;SDS011;3104;50.348;7.620;2023-04-28T07:58:18;10.47;;;9.37;;
6145;SDS011;3104;50.348;7.620;2023-04-28T08:00:44;8.37;;;7.57;;
6145;SDS011;3104;50.348;7.620;2023-04-28T08:03:10;9.93;;;7.27;;
6145;SDS011;3104;50.348;7.620;2023-04-28T08:05:37;8.77;;;7.30;;
6145;SDS011;3104;50.348;7.620;2023-04-28T08:08:03;8.27;;;7.57;;
6145;SDS011;3104;50.348;7.620;2023-04-28T08:10:29;8.00;;;7.17;;
6145;SDS011;3104;50.348;7.620;2023-04-28T08:12:54;8.03;;;7.23;;
6145;SDS011;3104;50.348;7.620;2023-04-28T08:15:20;8.83;;;7.93;;
6145;SDS011;3104;50.348;7.620;2023-04-28T08:17:46;9.23;;;7.27;;
6145;SDS011;3104;50.348;7.620;2023-04-28T08:20:11;6.83;;;6.23;;
6145;SDS011;3104;50.348;7.620;2023-04-28T08:22:39;10.23;;;7.30;;
6145;SDS011;3104;50.348;7.620;2023-04-28T08:25:05;8.03;;;7.43;;
6145;SDS011;3104;50.348;7.620;2023-04-28T08:27:32;8.27;;;7.50;;
6145;SDS011;3104;50.348;7.620;2023-04-28T08:29:58;7.70;;;6.70;;
6145;SDS011;3104;50.348;7.620;2023-04-28T08:32:23;6.60;;;6.00;;
6145;SDS011;3104;50.348;7.620;2023-04-28T08:34:49;7.47;;;6.77;;
6145;SDS011;3104;50.348;7.620;2023-04-28T08:37:15;6.80;;;6.20;;
6145;SDS011;3104;50.348;7.620;2023-04-28T08:39:40;7.90;;;7.10;;
6145;SDS011;3104;50.348;7.620;2023-04-28T08:42:06;6.83;;;6.20;;
6145;SDS011;3104;50.348;7.620;2023-04-28T08:44:38;6.60;;;6.10;;
6145;SDS011;3104;50.348;7.620;2023-04-28T08:47:11;6.63;;;5.60;;
6145;SDS011;3104;50.348;7.620;2023-04-28T08:49:40;7.20;;;6.50;;
6145;SDS011;3104;50.348;7.620;2023-04-28T08:52:11;5.70;;;5.20;;
6145;SDS011;3104;50.348;7.620;2023-04-28T08:54:40;6.70;;;6.20;;
6145;SDS011;3104;50.348;7.620;2023-04-28T08:57:08;9.67;;;8.60;;
6145;SDS011;3104;50.348;7.620;2023-04-28T08:59:37;6.30;;;5.70;;
6145;SDS011;3104;50.348;7.620;2023-04-28T09:02:03;6.23;;;5.63;;
6145;SDS011;3104;50.348;7.620;2023-04-28T09:04:29;6.27;;;5.50;;
6145;SDS011;3104;50.348;7.620;2023-04-28T09:06:55;5.40;;;4.90;;
6145;SDS011;3104;50.348;7.620;2023-04-28T09:09:27;6.10;;;5.53;;
6145;SDS011;3104;50.348;7.620;2023-04-28T09:11:58;5.00;;;4.50;;
6145;SDS011;3104;50.348;7.620;2023-04-28T09:14:28;5.40;;;4.37;;
6145;SDS011;3104;50.348;7.620;2023-04-28T09:16:54;4.20;;;3.87;;
6145;SDS011;3104;50.348;7.620;2023-04-28T09:19:21;4.13;;;3.77;;
6145;SDS011;3104;50.348;7.620;2023-04-28T09:21:47;4.20;;;3.90;;
6145;SDS011;3104;50.348;7.620;2023-04-28T09:24:30;4.57;;;4.27;;
6145;SDS011;3104;50.348;7.620;2023-04-28T09:26:58;4.57;;;4.17;;
6145;SDS011;3104;50.348;7.620;2023-04-28T09:29:24;4.53;;;4.13;;
6145;SDS011;3104;50.348;7.620;2023-04-28T09:31:50;4.70;;;3.90;;
6145;SDS011;3104;50.348;7.620;2023-04-28T09:34:17;6.50;;;6.00;;
6145;SDS011;3104;50.348;7.620;2023-04-28T09:36:43;7.23;;;6.63;;
6145;SDS011;3104;50.348;7.620;2023-04-28T09:39:08;6.97;;;6.23;;
6145;SDS011;3104;50.348;7.620;2023-04-28T09:41:43;4.63;;;4.23;;
6145;SDS011;3104;50.348;7.620;2023-04-28T09:44:16;4.10;;;3.80;;
6145;SDS011;3104;50.348;7.620;2023-04-28T09:46:43;3.90;;;3.60;;
6145;SDS011;3104;50.348;7.620;2023-04-28T09:49:10;4.10;;;3.67;;
6145;SDS011;3104;50.348;7.620;2023-04-28T09:51:37;4.47;;;4.07;;
6145;SDS011;3104;50.348;7.620;2023-04-28T09:54:03;4.07;;;3.87;;
6145;SDS011;3104;50.348;7.620;2023-04-28T09:56:30;5.30;;;4.60;;
6145;SDS011;3104;50.348;7.620;2023-04-28T09:58:57;4.27;;;3.97;;
6145;SDS011;3104;50.348;7.620;2023-04-28T10:01:24;5.40;;;4.20;;
6145;SDS011;3104;50.348;7.620;2023-04-28T10:03:51;4.30;;;4.00;;
6145;SDS011;3104;50.348;7.620;2023-04-28T10:06:18;3.80;;;3.50;;
6145;SDS011;3104;50.348;7.620;2023-04-28T10:08:44;3.40;;;2.87;;
6145;SDS011;3104;50.348;7.620;2023-04-28T10:11:12;3.10;;;2.90;;
6145;SDS011;3104;50.348;7.620;2023-04-28T10:13:40;3.40;;;3.17;;
6145;SDS011;3104;50.348;7.620;2023-04-28T10:16:07;4.30;;;3.30;;
6145;SDS011;3104;50.348;7.620;2023-04-28T10:18:34;4.13;;;3.77;;
6145;SDS011;3104;50.348;7.620;2023-04-28T10:21:01;3.60;;;3.30;;
6145;SDS011;3104;50.348;7.620;2023-04-28T10:29:25;3.37;;;3.17;;
6145;SDS011;3104;50.348;7.620;2023-04-28T10:34:39;3.57;;;3.27;;
6145;SDS011;3104;50.348;7.620;2023-04-28T10:37:05;3.13;;;2.77;;
6145;SDS011;3104;50.348;7.620;2023-04-28T10:39:30;2.83;;;2.63;;
6145;SDS011;3104;50.348;7.620;2023-04-28T10:41:57;2.50;;;2.30;;
6145;SDS011;3104;50.348;7.620;2023-04-28T10:44:43;2.30;;;2.20;;
6145;SDS011;3104;50.348;7.620;2023-04-28T10:47:08;2.30;;;2.20;;
6145;SDS011;3104;50.348;7.620;2023-04-28T11:00:41;2.13;;;1.93;;
6145;SDS011;3104;50.348;7.620;2023-04-28T11:03:07;2.20;;;2.10;;
6145;SDS011;3104;50.348;7.620;2023-04-28T11:05:33;1.90;;;1.80;;
6145;SDS011;3104;50.348;7.620;2023-04-28T11:13:40;1.83;;;1.73;;
6145;SDS011;3104;50.348;7.620;2023-04-28T11:16:06;1.70;;;1.60;;
6145;SDS011;3104;50.348;7.620;2023-04-28T11:18:47;1.60;;;1.50;;
6145;SDS011;3104;50.348;7.620;2023-04-28T11:21:18;1.97;;;1.60;;
6145;SDS011;3104;50.348;7.620;2023-04-28T11:23:46;1.93;;;1.80;;
6145;SDS011;3104;50.348;7.620;2023-04-28T11:26:11;1.87;;;1.77;;
6145;SDS011;3104;50.348;7.620;2023-04-28T11:28:50;1.80;;;1.70;;
6145;SDS011;3104;50.348;7.620;2023-04-28T11:31:18;1.60;;;1.50;;
6145;SDS011;3104;50.348;7.620;2023-04-28T11:36:36;1.43;;;1.43;;
6145;SDS011;3104;50.348;7.620;2023-04-28T11:39:03;1.60;;;1.50;;
6145;SDS011;3104;50.348;7.620;2023-04-28T11:41:31;2.43;;;2.33;;
6145;SDS011;3104;50.348;7.620;2023-04-28T11:44:17;2.17;;;2.07;;
6145;SDS011;3104;50.348;7.620;2023-04-28T11:49:21;1.70;;;1.60;;
6145;SDS011;3104;50.348;7.620;2023-04-28T11:51:52;1.80;;;1.60;;
6145;SDS011;3104;50.348;7.620;2023-04-28T11:54:22;2.80;;;1.70;;
6145;SDS011;3104;50.348;7.620;2023-04-28T11:56:49;1.57;;;1.47;;
6145;SDS011;3104;50.348;7.620;2023-04-28T11:59:16;1.43;;;1.33;;
6145;SDS011;3104;50.348;7.620;2023-04-28T12:04:10;1.30;;;1.30;;
6145;SDS011;3104;50.348;7.620;2023-04-28T12:06:37;2.30;;;1.80;;
6145;SDS011;3104;50.348;7.620;2023-04-28T12:09:19;1.43;;;1.33;;
6145;SDS011;3104;50.348;7.620;2023-04-28T12:11:55;1.90;;;1.80;;
6145;SDS011;3104;50.348;7.620;2023-04-28T12:14:24;1.10;;;1.10;;
6145;SDS011;3104;50.348;7.620;2023-04-28T12:16:50;1.33;;;1.30;;
6145;SDS011;3104;50.348;7.620;2023-04-28T12:19:16;1.40;;;1.40;;
6145;SDS011;3104;50.348;7.620;2023-04-28T12:21:56;1.67;;;1.67;;
6145;SDS011;3104;50.348;7.620;2023-04-28T12:24:24;1.40;;;1.40;;
6145;SDS011;3104;50.348;7.620;2023-04-28T12:26:51;1.20;;;1.20;;
6145;SDS011;3104;50.348;7.620;2023-04-28T12:32:03;1.13;;;1.13;;
6145;SDS011;3104;50.348;7.620;2023-04-28T12:34:33;1.10;;;1.00;;
6145;SDS011;3104;50.348;7.620;2023-04-28T12:37:00;1.40;;;1.37;;
6145;SDS011;3104;50.348;7.620;2023-04-28T12:39:27;1.40;;;1.30;;
6145;SDS011;3104;50.348;7.620;2023-04-28T12:41:53;1.30;;;1.30;;
6145;SDS011;3104;50.348;7.620;2023-04-28T12:44:19;1.17;;;1.10;;
6145;SDS011;3104;50.348;7.620;2023-04-28T12:46:46;1.20;;;1.20;;
6145;SDS011;3104;50.348;7.620;2023-04-28T12:49:12;2.80;;;2.60;;
6145;SDS011;3104;50.348;7.620;2023-04-28T12:51:39;1.43;;;1.33;;
6145;SDS011;3104;50.348;7.620;2023-04-28T12:54:05;1.20;;;1.20;;
6145;SDS011;3104;50.348;7.620;2023-04-28T12:56:30;1.20;;;1.10;;
6145;SDS011;3104;50.348;7.620;2023-04-28T12:58:56;1.20;;;1.10;;
6145;SDS011;3104;50.348;7.620;2023-04-28T13:01:22;1.30;;;1.20;;
6145;SDS011;3104;50.348;7.620;2023-04-28T13:03:48;1.07;;;1.07;;
6145;SDS011;3104;50.348;7.620;2023-04-28T13:06:16;2.30;;;1.20;;
6145;SDS011;3104;50.348;7.620;2023-04-28T13:08:41;1.10;;;1.00;;
6145;SDS011;3104;50.348;7.620;2023-04-28T13:11:08;1.70;;;1.30;;
6145;SDS011;3104;50.348;7.620;2023-04-28T13:13:35;1.17;;;1.17;;
6145;SDS011;3104;50.348;7.620;2023-04-28T13:16:01;1.57;;;1.47;;
6145;SDS011;3104;50.348;7.620;2023-04-28T13:18:28;1.67;;;1.57;;
6145;SDS011;3104;50.348;7.620;2023-04-28T13:20:55;4.20;;;1.70;;
6145;SDS011;3104;50.348;7.620;2023-04-28T13:23:21;1.50;;;1.40;;
6145;SDS011;3104;50.348;7.620;2023-04-28T13:25:46;1.67;;;1.57;;
6145;SDS011;3104;50.348;7.620;2023-04-28T13:28:12;1.40;;;1.30;;
6145;SDS011;3104;50.348;7.620;2023-04-28T13:30:38;1.20;;;1.20;;
6145;SDS011;3104;50.348;7.620;2023-04-28T13:33:04;1.23;;;1.23;;
6145;SDS011;3104;50.348;7.620;2023-04-28T13:35:29;1.33;;;1.33;;
6145;SDS011;3104;50.348;7.620;2023-04-28T13:37:55;2.70;;;2.50;;
6145;SDS011;3104;50.348;7.620;2023-04-28T13:40:26;2.67;;;2.30;;
6145;SDS011;3104;50.348;7.620;2023-04-28T13:42:52;1.67;;;1.57;;
6145;SDS011;3104;50.348;7.620;2023-04-28T13:45:18;9.40;;;8.00;;
6145;SDS011;3104;50.348;7.620;2023-04-28T13:47:43;2.63;;;2.03;;
6145;SDS011;3104;50.348;7.620;2023-04-28T13:50:09;1.87;;;1.63;;
6145;SDS011;3104;50.348;7.620;2023-04-28T13:52:35;2.57;;;2.37;;
6145;SDS011;3104;50.348;7.620;2023-04-28T13:55:00;3.90;;;2.17;;
6145;SDS011;3104;50.348;7.620;2023-04-28T13:57:26;4.80;;;1.80;;
6145;SDS011;3104;50.348;7.620;2023-04-28T13:59:52;1.67;;;1.40;;
6145;SDS011;3104;50.348;7.620;2023-04-28T14:02:17;2.10;;;1.33;;
6145;SDS011;3104;50.348;7.620;2023-04-28T14:04:43;1.87;;;1.77;;
6145;SDS011;3104;50.348;7.620;2023-04-28T14:07:15;2.53;;;1.40;;
6145;SDS011;3104;50.348;7.620;2023-04-28T14:09:41;1.33;;;1.30;;
6145;SDS011;3104;50.348;7.620;2023-04-28T14:12:07;1.57;;;1.47;;
6145;SDS011;3104;50.348;7.620;2023-04-28T14:14:33;3.07;;;1.60;;
6145;SDS011;3104;50.348;7.620;2023-04-28T14:16:58;1.00;;;1.00;;
6145;SDS011;3104;50.348;7.620;2023-04-28T14:19:24;1.13;;;1.03;;
6145;SDS011;3104;50.348;7.620;2023-04-28T14:21:51;1.17;;;1.13;;
6145;SDS011;3104;50.348;7.620;2023-04-28T14:24:17;1.50;;;1.00;;
6145;SDS011;3104;50.348;7.620;2023-04-28T14:26:44;1.00;;;0.90;;
6145;SDS011;3104;50.348;7.620;2023-04-28T14:29:10;1.23;;;1.20;;
6145;SDS011;3104;50.348;7.620;2023-04-28T14:31:36;1.17;;;0.80;;
6145;SDS011;3104;50.348;7.620;2023-04-28T14:34:02;1.37;;;0.93;;
6145;SDS011;3104;50.348;7.620;2023-04-28T14:36:29;0.93;;;0.93;;
6145;SDS011;3104;50.348;7.620;2023-04-28T14:38:57;1.23;;;1.20;;
6145;SDS011;3104;50.348;7.620;2023-04-28T14:41:23;7.00;;;6.33;;
6145;SDS011;3104;50.348;7.620;2023-04-28T14:43:49;2.53;;;2.33;;
6145;SDS011;3104;50.348;7.620;2023-04-28T14:46:15;1.20;;;1.20;;
6145;SDS011;3104;50.348;7.620;2023-04-28T14:48:43;1.10;;;1.00;;
6145;SDS011;3104;50.348;7.620;2023-04-28T14:51:09;1.70;;;1.50;;
6145;SDS011;3104;50.348;7.620;2023-04-28T14:53:34;1.50;;;1.40;;
6145;SDS011;3104;50.348;7.620;2023-04-28T14:56:00;3.27;;;1.80;;
6145;SDS011;3104;50.348;7.620;2023-04-28T14:58:27;3.17;;;2.37;;
6145;SDS011;3104;50.348;7.620;2023-04-28T15:00:53;11.73;;;4.07;;
6145;SDS011;3104;50.348;7.620;2023-04-28T15:03:19;3.73;;;2.77;;
6145;SDS011;3104;50.348;7.620;2023-04-28T15:05:44;2.67;;;2.20;;
6145;SDS011;3104;50.348;7.620;2023-04-28T15:08:10;2.03;;;1.70;;
6145;SDS011;3104;50.348;7.620;2023-04-28T15:10:37;4.43;;;2.27;;
6145;SDS011;3104;50.348;7.620;2023-04-28T15:13:03;3.93;;;2.20;;
6145;SDS011;3104;50.348;7.620;2023-04-28T15:15:30;1.47;;;1.37;;
6145;SDS011;3104;50.348;7.620;2023-04-28T15:17:56;3.17;;;1.60;;
6145;SDS011;3104;50.348;7.620;2023-04-28T15:20:25;2.63;;;1.50;;
6145;SDS011;3104;50.348;7.620;2023-04-28T15:22:51;2.93;;;1.97;;
6145;SDS011;3104;50.348;7.620;2023-04-28T15:25:17;2.30;;;1.50;;
6145;SDS011;3104;50.348;7.620;2023-04-28T15:27:42;1.90;;;1.70;;
6145;SDS011;3104;50.348;7.620;2023-04-28T15:30:08;1.10;;;1.00;;
6145;SDS011;3104;50.348;7.620;2023-04-28T15:32:34;1.33;;;1.23;;
6145;SDS011;3104;50.348;7.620;2023-04-28T15:35:00;4.03;;;1.10;;
6145;SDS011;3104;50.348;7.620;2023-04-28T15:37:45;1.33;;;1.23;;
6145;SDS011;3104;50.348;7.620;2023-04-28T15:40:16;1.73;;;1.30;;
6145;SDS011;3104;50.348;7.620;2023-04-28T15:42:43;2.70;;;1.20;;
6145;SDS011;3104;50.348;7.620;2023-04-28T15:45:16;1.20;;;1.07;;
6145;SDS011;3104;50.348;7.620;2023-04-28T15:47:43;2.00;;;1.10;;